createdAt,value
2018-04-19T00:01:12.374Z,5.35
2018-04-19T00:03:39.834Z,5.00
2018-04-19T00:06:07.284Z,4.60
2018-04-19T00:08:34.717Z,4.90
2018-04-19T00:11:02.178Z,5.12
2018-04-19T00:13:29.599Z,4.90
2018-04-19T00:15:57.050Z,4.40
2018-04-19T00:18:24.482Z,4.60
2018-04-19T00:20:51.923Z,4.10
2018-04-19T00:23:19.365Z,4.55
2018-04-19T00:25:46.810Z,4.20
2018-04-19T00:28:14.249Z,4.18
2018-04-19T00:30:41.689Z,4.70
2018-04-19T00:33:09.124Z,4.78
2018-04-19T00:35:36.565Z,5.12
2018-04-19T00:38:03.991Z,4.43
2018-04-19T00:40:31.441Z,4.15
2018-04-19T00:42:58.875Z,4.93
2018-04-19T00:45:26.323Z,4.70
2018-04-19T00:47:53.757Z,4.53
2018-04-19T00:50:21.197Z,4.60
2018-04-19T00:55:49.552Z,4.85
2018-04-19T00:58:16.963Z,4.25
2018-04-19T01:00:44.407Z,4.55
2018-04-19T01:03:11.832Z,4.25
2018-04-19T01:05:39.296Z,4.57
2018-04-19T01:08:06.738Z,4.55
2018-04-19T01:10:34.179Z,4.00
2018-04-19T01:13:01.636Z,4.82
2018-04-19T01:15:29.089Z,4.97
2018-04-19T01:17:56.541Z,5.28
2018-04-19T01:20:23.979Z,5.18
2018-04-19T01:22:51.417Z,4.87
2018-04-19T01:25:18.874Z,5.80
2018-04-19T01:27:46.320Z,5.78
2018-04-19T01:30:13.762Z,5.78
2018-04-19T01:32:41.203Z,5.43
2018-04-19T01:35:08.644Z,6.82
2018-04-19T01:37:36.093Z,5.62
2018-04-19T01:40:03.516Z,5.85
2018-04-19T01:42:30.968Z,5.65
2018-04-19T01:44:58.410Z,5.60
2018-04-19T01:47:25.848Z,5.50
2018-04-19T01:49:53.291Z,5.53
2018-04-19T01:52:20.738Z,4.90
2018-04-19T01:54:48.189Z,5.05
2018-04-19T01:57:15.644Z,5.43
2018-04-19T01:59:43.102Z,4.85
2018-04-19T02:02:10.557Z,4.78
2018-04-19T02:04:37.988Z,5.00
2018-04-19T02:07:05.436Z,5.20
2018-04-19T02:09:33.641Z,5.18
2018-04-19T02:12:01.107Z,4.93
2018-04-19T02:14:28.547Z,5.18
2018-04-19T02:16:56.001Z,4.75
2018-04-19T02:19:24.240Z,4.75
2018-04-19T02:21:51.689Z,5.43
2018-04-19T02:24:19.134Z,5.00
2018-04-19T02:26:46.597Z,5.05
2018-04-19T02:29:14.054Z,5.35
2018-04-19T02:31:41.504Z,5.32
2018-04-19T02:34:08.944Z,5.37
2018-04-19T02:36:37.217Z,5.70
2018-04-19T02:39:04.654Z,5.43
2018-04-19T02:41:32.086Z,5.78
2018-04-19T02:43:59.593Z,6.18
2018-04-19T02:46:27.032Z,7.00
2018-04-19T02:48:54.476Z,6.70
2018-04-19T02:51:21.909Z,7.40
2018-04-19T02:53:49.357Z,6.90
2018-04-19T02:56:17.572Z,7.22
2018-04-19T02:58:45.033Z,6.87
2018-04-19T03:01:12.464Z,7.45
2018-04-19T03:03:40.683Z,7.20
2018-04-19T03:06:08.121Z,7.57
2018-04-19T03:08:35.595Z,7.57
2018-04-19T03:11:03.046Z,7.72
2018-04-19T03:13:30.498Z,8.65
2018-04-19T03:15:58.700Z,7.72
2018-04-19T03:18:26.151Z,8.10
2018-04-19T03:20:53.606Z,8.07
2018-04-19T03:23:21.051Z,8.73
2018-04-19T03:25:49.256Z,9.30
2018-04-19T03:28:16.698Z,8.57
2018-04-19T03:30:44.907Z,8.40
2018-04-19T03:33:12.356Z,8.35
2018-04-19T03:35:40.601Z,7.87
2018-04-19T03:38:08.027Z,8.63
2018-04-19T03:40:35.475Z,8.77
2018-04-19T03:43:02.931Z,9.52
2018-04-19T03:45:31.148Z,9.63
2018-04-19T03:47:58.609Z,9.23
2018-04-19T03:50:26.049Z,9.82
2018-04-19T03:52:53.500Z,9.25
2018-04-19T03:55:20.946Z,9.05
2018-04-19T03:57:49.148Z,8.57
2018-04-19T04:00:16.585Z,8.88
2018-04-19T04:02:44.784Z,9.13
2018-04-19T04:05:12.246Z,8.95
2018-04-19T04:07:39.686Z,8.93
2018-04-19T04:10:07.900Z,8.80
2018-04-19T04:12:35.352Z,9.57
2018-04-19T04:15:02.810Z,9.50
2018-04-19T04:17:42.000Z,9.35
2018-04-19T04:20:21.376Z,10.73
2018-04-19T04:23:00.699Z,9.05
2018-04-19T04:25:28.152Z,9.35
2018-04-19T04:27:56.357Z,10.15
2018-04-19T04:30:24.597Z,10.20
2018-04-19T04:32:52.824Z,10.52
2018-04-19T04:35:20.309Z,10.50
2018-04-19T04:37:47.737Z,10.25
2018-04-19T04:40:15.197Z,11.45
2018-04-19T04:42:42.648Z,11.60
2018-04-19T04:45:10.110Z,10.65
2018-04-19T04:47:37.565Z,10.48
2018-04-19T04:50:05.781Z,10.65
2018-04-19T04:52:33.225Z,9.45
2018-04-19T04:55:00.687Z,11.38
2018-04-19T04:57:28.135Z,10.35
2018-04-19T04:59:56.381Z,10.63
2018-04-19T05:02:23.833Z,10.68
2018-04-19T05:04:51.296Z,9.82
2018-04-19T05:07:18.741Z,10.18
2018-04-19T05:09:46.198Z,10.82
2018-04-19T05:12:13.655Z,10.20
2018-04-19T05:14:41.118Z,11.27
2018-04-19T05:17:08.575Z,12.07
2018-04-19T05:19:36.037Z,11.43
2018-04-19T05:22:03.478Z,12.23
2018-04-19T05:24:30.956Z,11.38
2018-04-19T05:26:58.404Z,10.85
2018-04-19T05:29:25.862Z,11.12
2018-04-19T05:31:54.147Z,12.15
2018-04-19T05:34:22.352Z,12.57
2018-04-19T05:36:49.807Z,10.75
2018-04-19T05:39:17.236Z,12.32
2018-04-19T05:41:45.479Z,12.43
2018-04-19T05:44:12.930Z,11.30
2018-04-19T05:46:40.394Z,11.77
2018-04-19T05:49:07.836Z,10.60
2018-04-19T05:51:35.287Z,11.05
2018-04-19T05:54:02.747Z,12.02
2018-04-19T05:56:30.200Z,11.85
2018-04-19T05:58:57.652Z,11.70
2018-04-19T06:01:25.885Z,11.32
2018-04-19T06:03:53.324Z,11.77
2018-04-19T06:06:20.796Z,11.23
2018-04-19T06:08:48.252Z,12.15
2018-04-19T06:11:15.707Z,11.82
2018-04-19T06:13:43.150Z,11.23
2018-04-19T06:16:11.381Z,11.93
2018-04-19T06:18:38.823Z,12.02
2018-04-19T06:21:06.288Z,11.70
2018-04-19T06:23:33.748Z,11.38
2018-04-19T06:26:01.230Z,11.55
2018-04-19T06:28:28.669Z,12.00
2018-04-19T06:30:56.136Z,13.13
2018-04-19T06:33:24.350Z,12.30
2018-04-19T06:35:51.812Z,12.15
2018-04-19T06:38:19.270Z,11.90
2018-04-19T06:40:46.737Z,12.93
2018-04-19T06:43:14.192Z,12.90
2018-04-19T06:45:41.636Z,12.63
2018-04-19T06:48:09.102Z,12.68
2018-04-19T06:50:36.571Z,12.90
2018-04-19T06:53:04.848Z,12.43
2018-04-19T06:55:32.306Z,12.77
2018-04-19T06:57:59.768Z,11.45
2018-04-19T07:00:27.224Z,12.05
2018-04-19T07:02:54.693Z,12.35
2018-04-19T07:05:22.138Z,12.20
2018-04-19T07:07:49.613Z,12.30
2018-04-19T07:10:17.056Z,11.68
2018-04-19T07:12:44.526Z,11.90
2018-04-19T07:15:11.980Z,12.20
2018-04-19T07:17:39.441Z,10.38
2018-04-19T07:20:06.891Z,10.80
2018-04-19T07:22:34.351Z,10.77
2018-04-19T07:25:02.569Z,12.45
2018-04-19T07:27:30.037Z,11.20
2018-04-19T07:29:57.480Z,11.85
2018-04-19T07:32:24.935Z,11.32
2018-04-19T07:34:52.389Z,11.27
2018-04-19T07:37:19.861Z,10.90
2018-04-19T07:39:47.322Z,11.82
2018-04-19T07:42:14.777Z,10.65
2018-04-19T07:44:42.243Z,12.70
2018-04-19T07:47:09.718Z,10.13
2018-04-19T07:49:37.169Z,12.50
2018-04-19T07:52:04.621Z,14.02
2018-04-19T07:54:32.059Z,11.77
2018-04-19T07:57:00.302Z,13.85
2018-04-19T07:59:27.749Z,13.25
2018-04-19T08:01:55.233Z,15.40
2018-04-19T08:04:22.727Z,14.90
2018-04-19T08:06:50.180Z,15.98
2018-04-19T08:09:17.640Z,14.65
2018-04-19T08:11:45.103Z,16.05
2018-04-19T08:14:12.562Z,15.52
2018-04-19T08:16:40.008Z,15.05
2018-04-19T08:19:07.467Z,13.55
2018-04-19T08:21:34.939Z,14.02
2018-04-19T08:24:03.270Z,13.85
2018-04-19T08:26:31.465Z,12.93
2018-04-19T08:28:58.924Z,13.62
2018-04-19T08:31:26.384Z,12.05
2018-04-19T08:33:53.832Z,12.65
2018-04-19T08:36:21.304Z,14.32
2018-04-19T08:38:48.760Z,15.00
2018-04-19T08:41:16.224Z,14.75
2018-04-19T08:43:43.664Z,15.00
2018-04-19T08:46:11.886Z,14.23
2018-04-19T08:48:39.351Z,13.77
2018-04-19T08:51:06.816Z,13.40
2018-04-19T08:53:34.264Z,13.05
2018-04-19T08:56:01.728Z,12.35
2018-04-19T08:58:29.185Z,11.90
2018-04-19T09:00:57.395Z,10.98
2018-04-19T09:03:24.853Z,13.10
2018-04-19T09:05:52.300Z,11.80
2018-04-19T09:08:19.767Z,13.68
2018-04-19T09:10:47.241Z,12.55
2018-04-19T09:13:14.694Z,13.68
2018-04-19T09:15:42.141Z,14.35
2018-04-19T09:18:09.604Z,13.55
2018-04-19T09:20:37.048Z,13.38
2018-04-19T09:23:04.500Z,12.55
2018-04-19T09:25:32.732Z,12.90
2018-04-19T09:28:00.179Z,11.43
2018-04-19T09:30:28.405Z,12.50
2018-04-19T09:32:55.862Z,11.82
2018-04-19T09:35:23.316Z,10.45
2018-04-19T09:37:50.773Z,10.60
2018-04-19T09:40:18.242Z,10.27
2018-04-19T09:42:45.671Z,9.80
2018-04-19T09:45:13.133Z,10.10
2018-04-19T09:47:40.595Z,8.63
2018-04-19T09:50:08.049Z,7.32
2018-04-19T09:52:35.482Z,7.43
2018-04-19T09:55:03.706Z,7.35
2018-04-19T09:57:31.171Z,7.95
2018-04-19T09:59:58.638Z,8.63
2018-04-19T10:02:28.849Z,6.97
2018-04-19T10:05:02.118Z,7.62
2018-04-19T10:07:29.570Z,7.20
2018-04-19T10:09:57.797Z,7.82
2018-04-19T10:12:25.245Z,7.95
2018-04-19T10:14:52.704Z,7.85
2018-04-19T10:17:20.152Z,7.93
2018-04-19T10:19:47.609Z,7.75
2018-04-19T10:22:15.106Z,8.60
2018-04-19T10:24:42.563Z,7.00
2018-04-19T10:27:10.015Z,7.70
2018-04-19T10:29:37.497Z,7.40
2018-04-19T10:32:04.948Z,6.22
2018-04-19T10:34:32.398Z,5.75
2018-04-19T10:36:59.854Z,5.93
2018-04-19T10:39:27.335Z,6.60
2018-04-19T10:41:54.794Z,7.07
2018-04-19T10:44:23.254Z,7.30
2018-04-19T10:46:50.708Z,7.70
2018-04-19T10:49:18.927Z,7.18
2018-04-19T10:51:46.374Z,6.95
2018-04-19T10:54:13.825Z,6.20
2018-04-19T10:56:41.301Z,6.62
2018-04-19T10:59:08.757Z,6.25
2018-04-19T11:01:36.228Z,6.55
2018-04-19T11:04:03.664Z,6.95
2018-04-19T11:06:31.892Z,6.45
2018-04-19T11:08:59.344Z,6.97
2018-04-19T11:11:26.812Z,6.18
2018-04-19T11:13:54.274Z,6.18
2018-04-19T11:16:21.749Z,6.28
2018-04-19T11:18:49.200Z,6.55
2018-04-19T11:21:16.663Z,6.15
2018-04-19T11:23:44.104Z,5.15
2018-04-19T11:26:11.581Z,5.53
2018-04-19T11:28:39.034Z,6.00
2018-04-19T11:31:06.498Z,5.32
2018-04-19T11:33:34.707Z,5.35
2018-04-19T11:36:02.167Z,5.22
2018-04-19T11:38:29.632Z,4.62
2018-04-19T11:40:57.084Z,3.97
2018-04-19T11:43:24.537Z,4.07
2018-04-19T11:45:51.996Z,3.90
2018-04-19T11:48:19.461Z,4.00
2018-04-19T11:50:47.675Z,3.75
2018-04-19T11:53:15.117Z,3.92
2018-04-19T11:55:42.617Z,4.60
2018-04-19T11:58:10.863Z,4.22
2018-04-19T12:00:38.301Z,4.12
2018-04-19T12:03:05.777Z,4.22
2018-04-19T12:05:33.223Z,4.25
2018-04-19T12:08:00.678Z,4.50
2018-04-19T12:10:28.149Z,3.97
2018-04-19T12:12:55.604Z,3.90
2018-04-19T12:15:23.059Z,3.97
2018-04-19T12:17:50.500Z,3.37
2018-04-19T12:20:18.715Z,3.95
2018-04-19T12:22:46.177Z,3.45
2018-04-19T12:25:14.395Z,4.55
2018-04-19T12:27:41.865Z,4.30
2018-04-19T12:30:09.304Z,4.57
2018-04-19T12:32:36.762Z,3.60
2018-04-19T12:35:04.233Z,4.00
2018-04-19T12:37:31.763Z,4.75
2018-04-19T12:39:59.134Z,4.40
2018-04-19T12:42:26.603Z,4.60
2018-04-19T12:44:54.063Z,4.32
2018-04-19T12:47:21.533Z,3.90
2018-04-19T12:49:48.985Z,4.20
2018-04-19T12:52:17.233Z,4.20
2018-04-19T12:54:45.439Z,4.53
2018-04-19T12:57:12.904Z,4.30
2018-04-19T12:59:40.403Z,4.43
2018-04-19T13:02:07.871Z,4.65
2018-04-19T13:04:35.304Z,4.62
2018-04-19T13:07:02.765Z,4.60
2018-04-19T13:09:30.237Z,3.95
2018-04-19T13:11:57.701Z,4.37
2018-04-19T13:14:25.158Z,4.50
2018-04-19T13:16:52.694Z,4.57
2018-04-19T13:19:20.125Z,4.35
2018-04-19T13:21:48.360Z,3.80
2018-04-19T13:24:15.811Z,3.83
2018-04-19T13:26:43.288Z,3.62
2018-04-19T13:29:10.728Z,3.55
2018-04-19T13:31:38.190Z,3.92
2018-04-19T13:34:05.640Z,3.65
2018-04-19T13:36:33.090Z,3.70
2018-04-19T13:39:00.564Z,3.62
2018-04-19T13:41:28.019Z,3.80
2018-04-19T13:43:56.236Z,3.65
2018-04-19T13:46:23.699Z,3.70
2018-04-19T13:48:51.167Z,4.00
2018-04-19T13:51:18.622Z,3.60
2018-04-19T13:53:46.859Z,3.50
2018-04-19T13:56:15.069Z,3.42
2018-04-19T13:58:42.523Z,3.37
2018-04-19T14:01:10.021Z,4.00
2018-04-19T14:03:37.472Z,3.37
2018-04-19T14:06:04.921Z,3.30
2018-04-19T14:08:32.372Z,3.30
2018-04-19T14:10:59.825Z,3.25
2018-04-19T14:13:27.282Z,3.50
2018-04-19T14:15:54.745Z,3.90
2018-04-19T14:18:22.184Z,3.08
2018-04-19T14:20:50.482Z,3.42
2018-04-19T14:23:17.842Z,3.40
2018-04-19T14:25:46.612Z,3.37
2018-04-19T14:28:14.070Z,3.58
2018-04-19T14:30:41.517Z,3.35
2018-04-19T14:33:08.970Z,2.95
2018-04-19T14:35:36.429Z,2.83
2018-04-19T14:38:03.881Z,3.12
2018-04-19T14:40:31.335Z,3.15
2018-04-19T14:42:58.785Z,3.20
2018-04-19T14:45:26.253Z,3.17
2018-04-19T14:47:53.707Z,3.17
2018-04-19T14:50:21.179Z,3.10
2018-04-19T14:52:48.631Z,2.97
2018-04-19T14:55:16.207Z,3.10
2018-04-19T14:57:43.656Z,3.35
2018-04-19T15:00:11.871Z,3.15
2018-04-19T15:02:39.308Z,3.10
2018-04-19T15:05:06.774Z,22.73
2018-04-19T15:07:34.240Z,3.55
2018-04-19T15:10:01.703Z,3.00
2018-04-19T15:12:29.144Z,3.15
2018-04-19T15:14:56.619Z,3.05
2018-04-19T15:17:24.060Z,3.20
2018-04-19T15:19:51.516Z,3.10
2018-04-19T15:22:19.736Z,2.75
2018-04-19T15:24:47.191Z,3.05
2018-04-19T15:27:14.640Z,3.30
2018-04-19T15:29:42.095Z,2.90
2018-04-19T15:32:09.552Z,3.45
2018-04-19T15:34:37.810Z,2.90
2018-04-19T15:37:05.261Z,2.80
2018-04-19T15:39:32.720Z,3.03
2018-04-19T15:42:00.167Z,3.15
2018-04-19T15:44:27.631Z,3.17
2018-04-19T15:46:55.087Z,3.10
2018-04-19T15:49:22.561Z,3.25
2018-04-19T15:51:50.017Z,2.72
2018-04-19T15:54:17.477Z,3.20
2018-04-19T15:56:44.924Z,3.62
2018-04-19T15:59:12.392Z,3.30
2018-04-19T16:01:39.856Z,3.05
2018-04-19T16:04:07.317Z,2.83
2018-04-19T16:06:34.772Z,3.50
2018-04-19T16:09:02.238Z,3.30
2018-04-19T16:11:30.439Z,3.65
2018-04-19T16:13:57.883Z,3.70
2018-04-19T16:16:25.341Z,3.60
2018-04-19T16:18:52.794Z,4.70
2018-04-19T16:21:21.059Z,3.70
2018-04-19T16:23:48.517Z,3.50
2018-04-19T16:26:15.984Z,3.28
2018-04-19T16:28:48.624Z,4.00
2018-04-19T16:31:11.681Z,3.85
2018-04-19T16:33:39.129Z,3.60
2018-04-19T16:36:06.587Z,3.22
2018-04-19T16:38:34.044Z,3.45
2018-04-19T16:41:01.539Z,4.15
2018-04-19T16:43:28.947Z,3.78
2018-04-19T16:45:56.393Z,3.45
2018-04-19T16:50:57.860Z,3.47
2018-04-19T16:53:26.067Z,3.87
2018-04-19T16:55:54.288Z,3.53
2018-04-19T16:58:21.744Z,3.47
2018-04-19T17:00:49.242Z,3.30
2018-04-19T17:03:17.474Z,3.87
2018-04-19T17:05:44.930Z,3.50
2018-04-19T17:08:12.402Z,4.15
2018-04-19T17:10:39.857Z,3.78
2018-04-19T17:13:07.324Z,3.62
2018-04-19T17:15:34.782Z,3.67
2018-04-19T17:18:02.252Z,3.53
2018-04-19T17:23:20.826Z,3.60
2018-04-19T17:25:48.286Z,3.97
2018-04-19T17:28:15.738Z,3.60
2018-04-19T17:30:43.200Z,3.60
2018-04-19T17:33:10.634Z,4.00
2018-04-19T17:35:38.076Z,3.70
2018-04-19T17:38:06.298Z,3.70
2018-04-19T17:40:33.745Z,3.50
2018-04-19T17:43:01.201Z,3.37
2018-04-19T17:45:28.660Z,3.70
2018-04-19T17:47:56.128Z,3.58
2018-04-19T17:50:23.610Z,3.65
2018-04-19T17:52:51.059Z,3.50
2018-04-19T17:55:18.501Z,3.70
2018-04-19T17:57:45.960Z,3.55
2018-04-19T18:00:13.404Z,4.20
2018-04-19T18:02:41.645Z,4.30
2018-04-19T18:05:09.090Z,5.80
2018-04-19T18:07:36.565Z,5.12
2018-04-19T18:10:04.010Z,4.57
2018-04-19T18:12:31.470Z,4.85
2018-04-19T18:14:58.919Z,4.68
2018-04-19T18:17:26.391Z,5.03
2018-04-19T18:19:53.828Z,4.82
2018-04-19T18:22:21.284Z,4.50
2018-04-19T18:24:49.510Z,5.07
2018-04-19T18:27:16.968Z,5.25
2018-04-19T18:29:44.413Z,8.00
2018-04-19T18:32:11.879Z,7.57
2018-04-19T18:34:39.322Z,7.07
2018-04-19T18:37:06.776Z,11.80
2018-04-19T18:39:34.982Z,8.38
2018-04-19T18:42:02.470Z,10.98
2018-04-19T18:44:29.925Z,13.18
2018-04-19T18:46:57.381Z,8.73
2018-04-19T18:49:24.821Z,5.10
2018-04-19T18:51:52.278Z,4.78
2018-04-19T18:54:19.722Z,4.72
2018-04-19T18:56:47.937Z,4.53
2018-04-19T18:59:15.379Z,4.95
2018-04-19T19:01:43.603Z,4.50
2018-04-19T19:04:11.037Z,4.72
2018-04-19T19:06:38.477Z,6.00
2018-04-19T19:09:06.744Z,7.57
2018-04-19T19:11:34.166Z,16.30
2018-04-19T19:14:01.604Z,14.40
2018-04-19T19:16:29.069Z,17.25
2018-04-19T19:19:08.998Z,11.02
2018-04-19T19:21:37.218Z,10.25
2018-04-19T19:24:04.666Z,10.43
2018-04-19T19:26:32.122Z,8.43
2018-04-19T19:28:59.549Z,6.95
2018-04-19T19:31:27.788Z,6.30
2018-04-19T19:33:55.224Z,5.90
2018-04-19T19:36:22.659Z,5.87
2018-04-19T19:38:50.878Z,8.05
2018-04-19T19:41:18.331Z,6.82
2018-04-19T19:43:45.773Z,7.72
2018-04-19T19:46:13.228Z,9.00
2018-04-19T19:48:41.444Z,9.13
2018-04-19T19:51:08.907Z,9.82
2018-04-19T19:53:36.363Z,8.93
2018-04-19T19:56:03.804Z,6.95
2018-04-19T19:58:31.256Z,6.82
2018-04-19T20:00:59.464Z,6.10
2018-04-19T20:03:26.903Z,6.07
2018-04-19T20:05:54.354Z,5.70
2018-04-19T20:08:22.568Z,5.05
2018-04-19T20:10:50.026Z,5.50
2018-04-19T20:13:17.497Z,5.03
2018-04-19T20:15:44.929Z,5.12
2018-04-19T20:18:13.142Z,4.97
2018-04-19T20:20:40.571Z,4.60
2018-04-19T20:23:08.025Z,4.78
2018-04-19T20:25:36.236Z,4.53
2018-04-19T20:28:03.681Z,4.70
2018-04-19T20:30:31.158Z,4.95
2018-04-19T20:32:58.612Z,4.70
2018-04-19T20:35:26.059Z,5.45
2018-04-19T20:37:53.497Z,4.62
2018-04-19T20:40:27.230Z,4.70
2018-04-19T20:42:55.435Z,5.00
2018-04-19T20:45:22.877Z,4.75
2018-04-19T20:47:51.582Z,4.28
2018-04-19T20:50:19.054Z,4.30
2018-04-19T20:52:46.509Z,4.57
2018-04-19T20:55:13.939Z,4.72
2018-04-19T20:57:42.167Z,3.62
2018-04-19T21:00:09.612Z,4.18
2018-04-19T21:02:37.059Z,4.12
2018-04-19T21:05:04.506Z,4.62
2018-04-19T21:07:32.723Z,3.90
2018-04-19T21:10:00.172Z,4.10
2018-04-19T21:12:27.616Z,4.22
2018-04-19T21:14:55.095Z,4.25
2018-04-19T21:17:22.539Z,4.05
2018-04-19T21:19:50.782Z,4.40
2018-04-19T21:22:18.214Z,4.62
2018-04-19T21:24:45.653Z,3.90
2018-04-19T21:27:13.088Z,4.03
2018-04-19T21:29:41.309Z,3.90
2018-04-19T21:32:08.744Z,4.35
2018-04-19T21:34:38.281Z,4.47
2018-04-19T21:37:05.706Z,4.55
2018-04-19T21:39:33.172Z,4.55
2018-04-19T21:42:01.402Z,4.05
2018-04-19T21:44:28.827Z,4.05
2018-04-19T21:46:56.264Z,4.72
2018-04-19T21:49:23.708Z,4.60
2018-04-19T21:51:51.155Z,4.50
2018-04-19T21:54:18.605Z,4.20
2018-04-19T21:56:46.055Z,4.62
2018-04-19T21:59:13.525Z,4.80
2018-04-19T22:01:40.974Z,4.30
2018-04-19T22:04:08.414Z,4.70
2018-04-19T22:06:36.625Z,4.70
2018-04-19T22:09:04.080Z,5.97
2018-04-19T22:11:31.538Z,5.10
2018-04-19T22:13:58.973Z,5.20
2018-04-19T22:16:27.189Z,5.12
2018-04-19T22:18:54.651Z,4.72
2018-04-19T22:21:22.114Z,5.10
2018-04-19T22:23:49.550Z,5.55
2018-04-19T22:26:17.768Z,5.70
2018-04-19T22:28:45.205Z,5.47
2018-04-19T22:31:12.663Z,5.43
2018-04-19T22:33:40.100Z,5.03
2018-04-19T22:36:08.313Z,5.60
2018-04-19T22:38:35.760Z,5.50
2018-04-19T22:41:03.219Z,5.93
2018-04-19T22:43:31.424Z,5.60
2018-04-19T22:45:58.868Z,5.50
2018-04-19T22:48:26.315Z,5.35
2018-04-19T22:50:54.528Z,5.25
2018-04-19T22:53:21.983Z,5.97
2018-04-19T22:55:49.458Z,6.05
2018-04-19T22:58:16.876Z,5.72
2018-04-19T23:00:45.097Z,6.20
2018-04-19T23:03:12.543Z,5.68
2018-04-19T23:05:39.996Z,5.80
2018-04-19T23:08:07.460Z,5.70
2018-04-19T23:10:35.655Z,6.00
2018-04-19T23:13:03.092Z,5.57
2018-04-19T23:15:30.528Z,5.80
2018-04-19T23:17:57.973Z,5.97
2018-04-19T23:20:25.409Z,5.62
2018-04-19T23:22:52.861Z,5.82
2018-04-19T23:25:20.308Z,5.87
2018-04-19T23:27:47.748Z,6.00
2018-04-19T23:30:15.197Z,6.57
2018-04-19T23:32:42.637Z,6.28
2018-04-19T23:35:10.069Z,5.85
2018-04-19T23:37:37.598Z,6.90
2018-04-19T23:40:04.985Z,7.50
2018-04-19T23:42:32.435Z,8.10
2018-04-19T23:44:59.866Z,8.32
2018-04-19T23:47:27.316Z,7.62
2018-04-19T23:49:54.763Z,7.47
2018-04-19T23:52:22.215Z,7.55
2018-04-19T23:54:49.643Z,7.50
2018-04-19T23:57:17.092Z,7.60
2018-04-19T23:59:44.530Z,8.10
